首页
METAR-TAF:

METAR-TAF

机场 :

乃磨機場

纳奈莫, 不列颠哥伦比亚, 加拿大

纬度: 49-03N, 经度: 123-52W, 海拔: 28米

当前天气观测

该预报发布于43分钟前的15:00 UTC
风速2节,风向多变
温度 12°C
湿度 76%
气压 1016 hPa
能見度: 48.3公里
散云层高于6200英尺
多云层高于8500英尺

METAR: CYCD 121500Z VRB02KT 30SM SCT062 BKN085 12/08 A3001 RMK SC4AC2 SLP163

时间: 08:43 (15:43 UTC)

预报

该预报发布于1小时和5分钟前的14:38 UTC
预报有效从12日的 15点(UTC)到 13日的 03点(UTC)
风速3节,风向多变
能見度: 10公里
散云层高于3000英尺
多云层高于6000英尺
短暂存在
从 12日的 16点(UTC)到 12日的 19点(UTC)
多云层高于2000英尺
多云层高于6000英尺
从 12日的 1900点(UTC)
风速6节,风向东转东北
能見度: 10公里
少量云层高于3000英尺
多云层高于5000英尺

TAF: CYCD 121438Z 1215/1303 VRB03KT P6SM SCT030 BKN060 TEMPO 1216/1219 BKN020 BKN060 FM121900 07006KT P6SM FEW030 BKN050 RMK NXT FCST BY 121800Z

超过4000个机场的气象观测和天气预报(METAR&TAF报告)。

可查询的气象台以黄色和红色小点在地图上表示。

将鼠标移到小点上方,可查看气象台名称。

然后点击查看天气观测和预报。

如需切换地图:点击带黑十字的绿色按钮放大地图;点击带横线的绿色按钮缩小地图;或者点击绿色箭头查看邻近地区的地图。


METAR-TAF: